Time;durP1;ratioP1;P1;durP2;ratioP2;P2;SDS_P1;SDS_P2;PMS_P1;PMS_P2;Temp;Humidity;BMP_temperature;BMP_pressure;BME280_temperature;BME280_humidity;BME280_pressure;Samples;Min_cycle;Max_cycle;Signal;HPM_P1;HPM_P2
2021/04/09 00:01:40;;;;;;;15.98;9.50;;;;;;;1.16;64.40;101090.34;5067723;28;20039;-22
2021/04/09 00:04:05;;;;;;;17.10;9.00;;;;;;;1.03;64.11;101084.50;5067867;28;20175;-22
2021/04/09 00:06:31;;;;;;;16.70;9.52;;;;;;;0.74;65.18;101074.69;5067628;28;20862;-22
2021/04/09 00:08:56;;;;;;;21.10;8.77;;;;;;;1.26;64.03;101086.94;5067399;28;20044;-23
2021/04/09 00:11:22;;;;;;;19.25;9.15;;;;;;;1.12;64.32;101062.69;5067495;28;20024;-23
2021/04/09 00:13:47;;;;;;;15.90;9.60;;;;;;;1.14;63.46;101070.44;5067327;28;20033;-22
2021/04/09 00:16:13;;;;;;;15.15;9.50;;;;;;;0.87;65.07;101084.97;5049634;28;20029;-22
2021/04/09 00:18:39;;;;;;;15.38;9.00;;;;;;;0.71;65.52;101074.94;5067389;28;20381;-20
2021/04/09 00:21:04;;;;;;;16.15;9.48;;;;;;;0.61;66.15;101079.31;5049164;28;20502;-21
2021/04/09 00:23:30;;;;;;;15.57;8.93;;;;;;;0.76;66.84;101085.06;5067797;28;20106;-22
2021/04/09 00:25:56;;;;;;;20.48;9.95;;;;;;;0.79;65.47;101083.00;5067291;28;20034;-22
2021/04/09 00:28:21;;;;;;;16.67;9.35;;;;;;;0.40;66.41;101071.44;5066878;28;20108;-22
2021/04/09 00:30:47;;;;;;;16.40;9.38;;;;;;;0.73;66.06;101087.94;5067275;28;20449;-22
2021/04/09 00:33:12;;;;;;;15.70;9.38;;;;;;;0.76;64.54;101046.50;5067203;28;20036;-23
2021/04/09 00:35:38;;;;;;;17.95;9.90;;;;;;;1.12;65.12;101086.31;5067122;28;20050;-22
2021/04/09 00:38:04;;;;;;;18.45;9.07;;;;;;;0.91;63.75;101075.06;5049136;28;20059;-21
2021/04/09 00:40:29;;;;;;;17.40;8.75;;;;;;;0.97;64.66;101077.97;5067113;28;20028;-22
2021/04/09 00:42:55;;;;;;;18.98;9.63;;;;;;;1.05;64.51;101066.81;5049052;28;20025;-22
2021/04/09 00:45:20;;;;;;;18.52;9.27;;;;;;;0.82;64.51;101075.81;5067432;28;20047;-22
2021/04/09 00:47:46;;;;;;;15.10;8.23;;;;;;;0.86;64.36;101077.22;5049047;28;20037;-21
2021/04/09 00:50:12;;;;;;;15.40;9.43;;;;;;;0.58;63.92;101061.19;5066373;28;20049;-22
2021/04/09 00:52:38;;;;;;;15.93;9.20;;;;;;;1.05;64.08;101098.34;5067043;28;20024;-23
2021/04/09 00:55:05;;;;;;;16.02;8.15;;;;;;;0.67;63.92;101089.28;5067063;28;20036;-23
2021/04/09 00:57:31;;;;;;;19.65;8.85;;;;;;;0.69;64.51;101087.34;5032393;28;20507;-22
2021/04/09 00:59:56;;;;;;;14.05;8.50;;;;;;;0.47;64.74;101098.84;5049252;28;20092;-21
2021/04/09 01:02:22;;;;;;;15.35;8.27;;;;;;;0.35;65.00;101090.19;5067231;28;20032;-22
2021/04/09 01:04:48;;;;;;;14.18;8.07;;;;;;;0.35;64.72;101092.81;5049077;28;20039;-22
2021/04/09 01:07:13;;;;;;;14.80;8.43;;;;;;;0.26;64.97;101096.19;5048868;28;20118;-22
2021/04/09 01:09:39;;;;;;;14.90;8.18;;;;;;;0.70;63.68;101078.53;5066739;28;20028;-22
2021/04/09 01:12:05;;;;;;;15.15;8.27;;;;;;;0.77;63.17;101090.16;5068858;28;20051;-22
2021/04/09 01:14:31;;;;;;;12.93;7.93;;;;;;;0.57;63.62;101083.16;5070981;28;20111;-22
2021/04/09 01:17:00;;;;;;;12.50;7.70;;;;;;;0.47;64.34;101087.50;5053097;28;20557;-22
2021/04/09 01:19:40;;;;;;;;;;;;;;;0.88;62.36;101096.31;5071128;28;20539;-22
2021/04/09 01:22:06;;;;;;;12.38;7.15;;;;;;;1.03;61.72;101105.53;5070637;28;19957;-19
2021/04/09 01:24:46;;;;;;;13.15;7.22;;;;;;;1.25;61.43;101103.66;5070547;28;20032;-21
2021/04/09 01:27:33;;;;;;;13.88;7.15;;;;;;;1.09;61.32;101097.13;5070810;28;20067;-21
2021/04/09 01:30:21;;;;;;;13.65;7.78;;;;;;;1.13;62.70;101100.31;5070167;28;20086;-22
2021/04/09 01:32:46;;;;;;;14.38;7.88;;;;;;;0.99;61.39;101098.88;5052888;28;20027;-22
2021/04/09 01:35:14;;;;;;;10.70;7.30;;;;;;;1.17;61.18;101099.91;5052423;28;20032;-22
2021/04/09 01:37:42;;;;;;;13.32;7.00;;;;;;;1.32;60.19;101075.91;5052775;28;20074;-22
2021/04/09 01:40:19;;;;;;;13.50;6.85;;;;;;;1.13;61.57;101103.78;5052601;28;20404;-22
2021/04/09 01:42:46;;;;;;;12.73;7.15;;;;;;;1.12;61.46;101107.34;5052432;28;20074;-22
2021/04/09 01:45:12;;;;;;;10.68;6.32;;;;;;;1.16;61.21;101100.88;5052891;28;20105;-22
2021/04/09 01:47:38;;;;;;;12.60;7.22;;;;;;;0.63;63.13;101087.06;5035713;28;20107;-23
2021/04/09 01:50:04;;;;;;;13.73;7.47;;;;;;;0.60;62.84;101106.53;5051643;28;20139;-22
2021/04/09 01:52:32;;;;;;;12.68;7.22;;;;;;;0.72;62.39;101108.13;5052142;28;20056;-22
2021/04/09 01:54:58;;;;;;;12.77;6.70;;;;;;;0.72;60.55;101087.13;5052235;28;20032;-22
2021/04/09 01:57:24;;;;;;;10.75;6.50;;;;;;;0.87;59.70;101099.91;5069966;28;20028;-22
2021/04/09 01:59:49;;;;;;;11.05;6.57;;;;;;;0.75;60.21;101089.47;5052130;28;20104;-22
2021/04/09 02:02:16;;;;;;;12.25;6.30;;;;;;;0.83;58.85;101096.72;5035166;28;20484;-22
2021/04/09 02:04:42;;;;;;;10.93;6.28;;;;;;;0.86;58.77;101091.22;5069921;28;20440;-21
2021/04/09 02:07:07;;;;;;;12.82;6.30;;;;;;;1.12;57.98;101094.22;5052250;28;20025;-22
2021/04/09 02:09:33;;;;;;;11.32;6.13;;;;;;;1.03;58.04;101099.44;5051928;28;20029;-22
2021/04/09 02:11:59;;;;;;;13.32;5.70;;;;;;;0.89;58.44;101096.19;5051680;28;20040;-22
2021/04/09 02:14:24;;;;;;;10.05;6.57;;;;;;;0.91;57.91;101072.44;5035301;28;20025;-22
2021/04/09 02:16:50;;;;;;;15.20;6.13;;;;;;;1.19;56.27;101079.59;5051756;28;20378;-22
2021/04/09 02:19:15;;;;;;;11.05;5.53;;;;;;;1.25;56.67;101104.50;5069733;28;20472;-22
2021/04/09 02:21:41;;;;;;;11.38;5.68;;;;;;;1.45;56.29;101104.56;5034581;28;20063;-22
2021/04/09 02:24:07;;;;;;;11.25;5.97;;;;;;;1.37;55.59;101082.41;5051569;28;20507;-19
2021/04/09 02:26:33;;;;;;;12.95;7.35;;;;;;;1.20;60.26;101094.38;5069795;28;20818;-22
2021/04/09 02:28:59;;;;;;;13.80;7.05;;;;;;;0.87;61.73;101078.91;5069666;28;21113;-22
2021/04/09 02:31:24;;;;;;;13.77;7.97;;;;;;;0.50;63.15;101108.25;5051251;28;20099;-22
2021/04/09 02:33:50;;;;;;;16.88;8.43;;;;;;;0.18;63.56;101124.84;5051594;28;20404;-22
2021/04/09 02:36:22;;;;;;;15.32;9.25;;;;;;;0.02;64.65;101119.19;5068948;28;20060;-23
2021/04/09 02:39:05;;;;;;;17.35;8.75;;;;;;;0.54;63.10;101121.00;5069352;28;20578;-21
2021/04/09 02:41:33;;;;;;;25.98;12.35;;;;;;;0.68;63.43;101122.47;5051407;28;20107;-23
2021/04/09 02:44:00;;;;;;;21.52;11.40;;;;;;;0.56;63.50;101113.00;5051318;28;20044;-22
2021/04/09 02:46:37;;;;;;;19.55;10.45;;;;;;;1.04;62.53;101137.88;5051110;28;20071;-22
2021/04/09 02:49:14;;;;;;;17.65;9.43;;;;;;;0.88;62.96;101133.06;5068929;28;20089;-22
2021/04/09 02:51:43;;;;;;;17.38;10.85;;;;;;;0.99;62.32;101120.69;5035828;28;20033;-22
2021/04/09 02:54:15;;;;;;;18.70;12.23;;;;;;;1.04;62.44;101117.69;5034385;28;20059;-22
2021/04/09 02:56:40;;;;;;;22.05;13.23;;;;;;;1.27;61.92;101135.88;5051267;28;20115;-21
2021/04/09 02:59:10;;;;;;;24.02;13.45;;;;;;;1.11;62.71;101134.59;5069131;28;20119;-21
2021/04/09 03:01:36;;;;;;;24.13;14.30;;;;;;;1.41;61.70;101138.19;5050572;28;20458;-22
2021/04/09 03:04:02;;;;;;;27.90;17.92;;;;;;;1.45;61.35;101147.47;5034538;28;20111;-22
2021/04/09 03:06:27;;;;;;;29.95;19.45;;;;;;;1.73;59.72;101139.78;5034310;28;20039;-21
2021/04/09 03:08:53;;;;;;;27.85;20.17;;;;;;;1.64;60.10;101162.47;5034365;28;20146;-22
2021/04/09 03:11:21;;;;;;;27.45;21.10;;;;;;;1.40;61.41;101154.91;5050627;28;20496;-22
2021/04/09 03:13:47;;;;;;;;;;;;;;;1.38;60.98;101176.06;5069104;28;20899;-22
2021/04/09 03:16:12;;;;;;;27.75;16.00;;;;;;;1.15;61.46;101162.28;5068219;28;20006;-22
2021/04/09 03:18:38;;;;;;;28.33;17.48;;;;;;;1.15;61.74;101157.00;5033966;28;20111;-23
2021/04/09 03:21:04;;;;;;;60.20;33.95;;;;;;;1.30;61.11;101154.88;5050638;28;20079;-22
2021/04/09 03:23:30;;;;;;;72.88;41.95;;;;;;;1.32;61.47;101152.13;5068304;28;20051;-22
2021/04/09 03:25:55;;;;;;;54.05;29.75;;;;;;;1.49;60.46;101180.41;5050377;28;20400;-22
2021/04/09 03:28:21;;;;;;;37.33;20.15;;;;;;;1.69;59.65;101149.75;5068224;28;20028;-22
2021/04/09 03:30:50;;;;;;;30.08;16.63;;;;;;;1.74;60.38;101180.91;5068244;28;20066;-21
2021/04/09 03:33:16;;;;;;;;;;;;;;;1.72;59.62;101180.22;5068237;28;20032;-22
2021/04/09 03:35:42;;;;;;;28.55;17.05;;;;;;;1.71;59.57;101173.28;5049710;28;20380;-21
2021/04/09 03:38:07;;;;;;;27.17;16.45;;;;;;;1.80;59.13;101161.97;5067932;28;20041;-22
2021/04/09 03:40:33;;;;;;;28.33;19.88;;;;;;;2.07;58.78;101186.81;5068366;28;20046;-22
2021/04/09 03:42:58;;;;;;;34.13;20.27;;;;;;;1.83;59.71;101193.25;5068019;28;20036;-22
2021/04/09 03:45:24;;;;;;;20.70;15.93;;;;;;;1.05;60.66;101192.09;5049872;28;20097;-22
2021/04/09 03:47:49;;;;;;;17.67;13.18;;;;;;;1.04;61.35;101195.66;5048957;28;20078;-21
2021/04/09 03:50:15;;;;;;;20.90;14.38;;;;;;;1.58;60.46;101200.66;5066430;28;20143;-22
2021/04/09 03:52:40;;;;;;;15.55;11.20;;;;;;;1.08;61.06;101199.69;5067780;28;20107;-22
2021/04/09 03:55:09;;;;;;;17.92;10.77;;;;;;;1.37;60.54;101192.00;5067951;28;20033;-21
2021/04/09 03:57:34;;;;;;;19.58;11.55;;;;;;;1.47;59.75;101184.97;5067604;28;20024;-22
2021/04/09 04:00:00;;;;;;;20.65;14.10;;;;;;;0.79;62.17;101203.78;5067702;28;20043;-21
2021/04/09 04:02:25;;;;;;;85.00;51.03;;;;;;;0.99;62.25;101219.69;5067524;28;20029;-22
2021/04/09 04:04:51;;;;;;;36.10;23.95;;;;;;;0.71;64.03;101218.50;5067633;28;20039;-22
2021/04/09 04:07:16;;;;;;;39.10;23.00;;;;;;;0.28;64.48;101222.84;5067516;28;20047;-23
2021/04/09 04:09:42;;;;;;;184.93;80.43;;;;;;;0.87;63.06;101225.97;5067482;28;20032;-22
2021/04/09 04:12:08;;;;;;;126.82;58.10;;;;;;;0.91;63.14;101209.00;5067110;28;20028;-22
2021/04/09 04:14:34;;;;;;;220.98;89.00;;;;;;;1.16;62.71;101229.59;5067419;28;20032;-22
2021/04/09 04:17:00;;;;;;;154.50;68.78;;;;;;;1.10;62.37;101214.34;5049571;28;20421;-20
2021/04/09 04:19:25;;;;;;;90.07;42.15;;;;;;;1.07;62.41;101212.00;5067514;28;20058;-22
2021/04/09 04:21:51;;;;;;;62.08;30.75;;;;;;;1.28;60.67;101198.00;5067570;28;20036;-22
2021/04/09 04:24:17;;;;;;;66.50;30.25;;;;;;;0.95;61.53;101203.34;5067088;28;20027;-22
2021/04/09 04:26:42;;;;;;;68.60;32.65;;;;;;;1.15;61.98;101227.97;5067441;28;20067;-22
2021/04/09 04:29:08;;;;;;;123.85;60.60;;;;;;;1.39;61.38;101226.84;5067652;28;20119;-23
2021/04/09 04:31:33;;;;;;;133.32;61.80;;;;;;;1.25;62.01;101219.28;5067215;28;20028;-22
2021/04/09 04:33:59;;;;;;;90.30;45.13;;;;;;;1.65;61.43;101231.66;5067115;28;20062;-22
2021/04/09 04:36:25;;;;;;;53.53;29.67;;;;;;;1.94;60.47;101240.50;5049084;28;20137;-21
2021/04/09 04:38:50;;;;;;;56.22;32.30;;;;;;;1.43;62.09;101244.03;5067436;28;20119;-22
2021/04/09 04:41:19;;;;;;;62.92;33.80;;;;;;;1.16;63.19;101248.00;5067467;28;20032;-22
2021/04/09 04:43:45;;;;;;;50.88;30.90;;;;;;;0.84;65.49;101231.47;5067078;28;20024;-21
2021/04/09 04:46:10;;;;;;;71.22;34.83;;;;;;;1.26;62.79;101232.28;5066691;28;20044;-22
2021/04/09 04:48:36;;;;;;;59.28;35.33;;;;;;;1.31;64.64;101260.81;5067072;28;20041;-22
2021/04/09 04:51:01;;;;;;;66.90;34.45;;;;;;;1.96;61.91;101251.72;5066867;28;20127;-23
2021/04/09 04:53:27;;;;;;;51.80;29.73;;;;;;;2.00;61.07;101255.75;5058789;28;20033;-22
2021/04/09 04:55:52;;;;;;;56.95;29.40;;;;;;;2.13;61.31;101257.31;5066899;28;20048;-22
2021/04/09 04:58:18;;;;;;;47.35;26.20;;;;;;;2.33;60.06;101248.50;5067200;28;20036;-22
2021/04/09 05:00:44;;;;;;;46.92;25.05;;;;;;;2.46;59.69;101252.69;5067291;28;20920;-21
2021/04/09 05:03:09;;;;;;;50.10;25.92;;;;;;;2.71;57.92;101236.31;5067052;28;20032;-22
2021/04/09 05:05:35;;;;;;;46.13;24.13;;;;;;;2.69;57.73;101242.69;5066959;28;20032;-21
2021/04/09 05:08:00;;;;;;;37.03;18.35;;;;;;;2.74;56.50;101267.66;5067237;28;20032;-23
2021/04/09 05:10:26;;;;;;;45.15;24.52;;;;;;;2.25;58.13;101256.25;5066567;28;20075;-22
2021/04/09 05:12:51;;;;;;;44.65;25.77;;;;;;;2.24;58.61;101270.34;5066771;28;20028;-22
2021/04/09 05:15:17;;;;;;;39.75;22.08;;;;;;;2.11;58.62;101231.13;5066771;28;20037;-22
2021/04/09 05:17:42;;;;;;;32.05;18.75;;;;;;;2.15;59.38;101264.09;5066944;28;20032;-20
2021/04/09 05:20:08;;;;;;;35.10;18.73;;;;;;;2.30;60.20;101275.09;5066726;28;20127;-22
2021/04/09 05:22:34;;;;;;;23.17;14.68;;;;;;;2.85;58.58;101273.78;5066757;28;20104;-22
2021/04/09 05:24:59;;;;;;;25.02;14.40;;;;;;;2.71;59.68;101257.41;5038244;28;20506;-22
2021/04/09 05:27:25;;;;;;;24.88;14.48;;;;;;;3.22;58.28;101274.69;5045772;28;20044;-22
2021/04/09 05:29:51;;;;;;;25.70;14.23;;;;;;;3.31;58.94;101280.09;5012375;28;20477;-22
2021/04/09 05:32:17;;;;;;;23.73;15.10;;;;;;;3.80;56.96;101296.63;5046572;28;20029;-22
2021/04/09 05:34:42;;;;;;;19.60;11.82;;;;;;;3.81;55.62;101298.31;5046349;28;20064;-22
2021/04/09 05:37:08;;;;;;;36.08;28.70;;;;;;;3.67;56.59;101299.59;5046723;28;20037;-21
2021/04/09 05:39:34;;;;;;;26.83;16.67;;;;;;;4.39;54.41;101297.19;5046643;28;20039;-22
2021/04/09 05:42:00;;;;;;;20.63;11.65;;;;;;;4.53;52.50;101288.75;5028766;28;20033;-23
2021/04/09 05:44:25;;;;;;;15.93;9.48;;;;;;;4.22;53.87;101290.91;5046184;28;20040;-23
2021/04/09 05:46:52;;;;;;;18.42;10.73;;;;;;;4.76;52.79;101305.03;5028569;28;20033;-22
2021/04/09 05:49:17;;;;;;;35.92;19.77;;;;;;;4.81;52.05;101286.06;5046365;28;20115;-23
2021/04/09 05:51:43;;;;;;;17.58;10.82;;;;;;;5.08;51.95;101298.38;5046472;28;20029;-22
2021/04/09 05:54:09;;;;;;;15.65;9.02;;;;;;;4.42;53.30;101308.31;5046446;28;20059;-22
2021/04/09 05:56:34;;;;;;;20.00;10.63;;;;;;;4.89;53.02;101311.75;5046244;28;20162;-22
2021/04/09 05:59:00;;;;;;;19.55;10.45;;;;;;;4.95;52.52;101311.16;5050131;28;20040;-21
2021/04/09 06:01:27;;;;;;;23.60;12.52;;;;;;;5.07;52.42;101312.59;5050056;28;20036;-22
2021/04/09 06:03:52;;;;;;;16.75;9.70;;;;;;;5.41;51.76;101319.78;5050332;28;20872;-22
2021/04/09 06:06:18;;;;;;;16.75;9.82;;;;;;;5.63;51.02;101324.56;5049648;28;20025;-22
2021/04/09 06:08:43;;;;;;;18.92;12.27;;;;;;;5.58;51.30;101318.91;5049705;28;20032;-22
2021/04/09 06:11:09;;;;;;;21.90;11.65;;;;;;;5.39;53.64;101319.09;5049485;28;20079;-23
2021/04/09 06:13:35;;;;;;;15.93;9.00;;;;;;;5.39;51.54;101313.81;5032017;28;20037;-22
2021/04/09 06:16:00;;;;;;;16.80;8.80;;;;;;;5.69;50.48;101330.22;5031746;28;20504;-22
2021/04/09 06:18:26;;;;;;;20.55;11.00;;;;;;;6.01;48.96;101306.63;5049405;28;20428;-21
2021/04/09 06:20:52;;;;;;;21.63;12.02;;;;;;;6.13;47.53;101322.22;5049668;28;20128;-23
2021/04/09 06:23:17;;;;;;;40.20;21.77;;;;;;;6.42;49.31;101325.31;5031770;28;20098;-22
2021/04/09 06:25:43;;;;;;;15.85;10.02;;;;;;;6.33;48.78;101318.31;5034135;28;20421;-22
2021/04/09 06:28:08;;;;;;;18.35;11.32;;;;;;;6.15;50.82;101307.84;5029299;28;20065;-21
2021/04/09 06:30:34;;;;;;;16.65;9.85;;;;;;;6.40;49.76;101308.75;5029273;28;20152;-22
2021/04/09 06:33:00;;;;;;;18.42;11.00;;;;;;;6.28;53.00;101320.63;5029631;28;20044;-22
2021/04/09 06:35:25;;;;;;;17.92;11.57;;;;;;;6.39;50.57;101309.72;5029543;28;20543;-21
2021/04/09 06:37:51;;;;;;;13.57;9.23;;;;;;;6.47;50.67;101324.00;5029777;28;20049;-21
2021/04/09 06:40:16;;;;;;;16.50;9.15;;;;;;;6.63;52.76;101318.75;5029192;28;20022;-21
2021/04/09 06:42:45;;;;;;;18.17;9.63;;;;;;;7.04;52.46;101332.09;5029399;28;20164;-22
2021/04/09 06:45:12;;;;;;;14.20;8.07;;;;;;;7.03;48.80;101327.78;5029533;28;20039;-22
2021/04/09 06:47:38;;;;;;;14.90;7.40;;;;;;;7.13;49.44;101311.69;5029450;28;20818;-21
2021/04/09 06:50:04;;;;;;;16.02;7.10;;;;;;;7.42;49.57;101335.09;5029034;28;20084;-22
2021/04/09 06:52:31;;;;;;;9.87;6.03;;;;;;;7.60;47.50;101333.06;5011510;28;20136;-22
2021/04/09 06:54:59;;;;;;;7.63;4.60;;;;;;;7.54;47.29;101325.78;5029037;28;20278;-21
2021/04/09 06:57:24;;;;;;;9.40;5.47;;;;;;;7.65;47.51;101333.38;5028796;28;20025;-21
2021/04/09 06:59:50;;;;;;;10.98;4.82;;;;;;;7.92;47.01;101339.31;5028972;28;20036;-22
2021/04/09 07:02:16;;;;;;;7.05;3.65;;;;;;;7.74;44.10;101336.03;4993900;28;20040;-22
2021/04/09 07:04:43;;;;;;;7.43;4.18;;;;;;;7.36;45.84;101328.59;5028965;28;20068;-21
2021/04/09 07:07:12;;;;;;;8.20;5.43;;;;;;;7.75;50.21;101327.06;5028802;28;20044;-22
2021/04/09 07:09:38;;;;;;;12.05;4.65;;;;;;;8.17;42.62;101331.25;5028247;28;20035;-22
2021/04/09 07:12:04;;;;;;;8.98;4.63;;;;;;;8.41;46.06;101349.78;5028809;28;20090;-22
2021/04/09 07:15:06;;;;;;;9.52;7.43;;;;;;;8.47;45.56;101348.28;4994332;28;20026;-22
2021/04/09 07:17:36;;;;;;;9.15;4.18;;;;;;;8.61;45.96;101344.06;4967307;28;20031;-22
2021/04/09 07:20:17;;;;;;;10.82;5.03;;;;;;;8.42;48.06;101324.88;5017750;28;20038;-21
2021/04/09 07:22:53;;;;;;;7.57;3.50;;;;;;;8.36;43.34;101356.63;5028390;28;20033;-22
2021/04/09 07:25:20;;;;;;;7.03;3.58;;;;;;;8.15;44.76;101354.50;5028263;28;20082;-22
2021/04/09 07:27:47;;;;;;;6.82;3.38;;;;;;;8.23;42.63;101354.47;5028527;28;20120;-22
2021/04/09 07:30:25;;;;;;;7.05;3.70;;;;;;;8.24;43.61;101342.88;5028359;28;20029;-22
2021/04/09 07:32:51;;;;;;;;;;;;;;;8.67;44.92;101351.34;5028813;28;20091;-22
2021/04/09 07:35:17;;;;;;;6.47;3.72;;;;;;;8.59;42.39;101362.00;5028182;28;19912;-22
2021/04/09 07:37:56;;;;;;;6.50;3.00;;;;;;;8.61;44.37;101360.00;5010927;28;20029;-20
2021/04/09 07:40:24;;;;;;;6.15;3.33;;;;;;;9.08;43.04;101359.06;5028088;28;20028;-22
2021/04/09 07:42:49;;;;;;;5.83;3.20;;;;;;;9.40;44.33;101350.00;5028015;28;20375;-22
2021/04/09 07:45:16;;;;;;;4.70;2.90;;;;;;;9.23;41.03;101359.97;5027949;28;20846;-22
2021/04/09 07:47:53;;;;;;;7.22;3.40;;;;;;;9.31;43.53;101360.88;5027784;28;20043;-21
2021/04/09 07:50:19;;;;;;;8.32;3.20;;;;;;;9.20;42.37;101354.16;5027438;28;20042;-22
2021/04/09 07:52:46;;;;;;;7.00;3.05;;;;;;;9.50;43.41;101355.09;5028387;28;20464;-21
2021/04/09 07:55:13;;;;;;;5.85;2.90;;;;;;;9.31;42.11;101351.06;5010458;28;20489;-20
2021/04/09 07:57:38;;;;;;;7.35;2.88;;;;;;;9.45;41.88;101352.13;5027967;28;20850;-21
2021/04/09 08:00:21;;;;;;;6.75;3.15;;;;;;;9.51;38.52;101351.41;5028048;28;20021;-22
2021/04/09 08:02:47;;;;;;;4.72;2.35;;;;;;;9.75;36.98;101354.84;5027802;28;20067;-22
2021/04/09 08:05:17;;;;;;;4.05;2.78;;;;;;;9.76;38.94;101335.19;5027903;28;20477;-21
2021/04/09 08:07:43;;;;;;;6.63;3.13;;;;;;;9.75;41.34;101338.88;5027596;28;20043;-22
2021/04/09 08:10:11;;;;;;;4.85;2.70;;;;;;;9.88;42.83;101347.03;5027320;28;20053;-22
2021/04/09 08:12:37;;;;;;;4.65;2.20;;;;;;;10.17;38.43;101350.72;5009926;28;20034;-22
2021/04/09 08:15:12;;;;;;;4.47;2.20;;;;;;;10.42;37.42;101356.59;5027586;28;20067;-22
2021/04/09 08:17:38;;;;;;;6.07;2.20;;;;;;;10.65;37.95;101361.81;5027456;28;20033;-22
2021/04/09 08:20:11;;;;;;;4.97;2.25;;;;;;;10.70;38.91;101367.41;5027146;28;20030;-22
2021/04/09 08:22:36;;;;;;;5.65;2.28;;;;;;;10.31;39.09;101349.09;5027211;28;20076;-22
2021/04/09 08:25:03;;;;;;;5.18;2.38;;;;;;;10.52;38.60;101375.00;5009560;28;20057;-22
2021/04/09 08:27:29;;;;;;;4.03;1.98;;;;;;;10.71;36.93;101363.75;5027191;28;20030;-21
2021/04/09 08:29:54;;;;;;;4.32;2.38;;;;;;;10.21;36.26;101373.34;5027534;28;20040;-22
2021/04/09 08:32:20;;;;;;;3.88;1.98;;;;;;;10.41;38.57;101369.13;5027315;28;20044;-21
2021/04/09 08:34:45;;;;;;;6.07;2.50;;;;;;;10.78;38.51;101375.31;5009871;28;20025;-20
2021/04/09 08:37:11;;;;;;;3.45;1.90;;;;;;;10.56;38.23;101373.59;4993507;28;20071;-21
2021/04/09 08:39:36;;;;;;;5.15;2.42;;;;;;;10.77;37.84;101384.34;5009661;28;20116;-22
2021/04/09 08:42:02;;;;;;;5.30;2.13;;;;;;;11.01;33.81;101379.66;5009565;28;20033;-22
2021/04/09 08:44:28;;;;;;;5.13;1.98;;;;;;;11.20;34.57;101378.22;5026950;28;20025;-22
2021/04/09 08:46:53;;;;;;;3.05;2.10;;;;;;;11.69;31.75;101377.41;5027132;28;20026;-22
2021/04/09 08:49:19;;;;;;;3.60;1.98;;;;;;;11.60;40.50;101379.38;5026859;28;20053;-22
2021/04/09 08:51:44;;;;;;;5.65;1.95;;;;;;;11.55;34.57;101386.34;5029164;28;20037;-20
2021/04/09 08:54:30;;;;;;;4.65;1.88;;;;;;;11.24;35.82;101380.31;5009537;28;20107;-22
2021/04/09 08:56:56;;;;;;;2.97;2.03;;;;;;;11.29;32.46;101386.94;5026930;28;20025;-21
2021/04/09 08:59:48;;;;;;;3.90;1.75;;;;;;;11.19;33.45;101365.88;5026999;28;20033;-22
2021/04/09 09:02:26;;;;;;;5.60;2.00;;;;;;;11.42;34.37;101365.66;5024811;28;20124;-21
2021/04/09 09:05:10;;;;;;;3.55;1.88;;;;;;;11.50;33.98;101368.19;5026882;28;20477;-22
2021/04/09 09:07:53;;;;;;;4.78;2.33;;;;;;;11.31;31.59;101366.19;5027257;28;20037;-21
2021/04/09 09:10:22;;;;;;;11.75;5.20;;;;;;;11.68;35.30;101372.25;5026696;28;20084;-22
2021/04/09 09:13:06;;;;;;;4.13;2.30;;;;;;;11.55;33.27;101370.31;5027078;28;20035;-22
2021/04/09 09:15:46;;;;;;;3.85;2.10;;;;;;;11.30;35.29;101368.03;5026872;28;20116;-20
2021/04/09 09:18:24;;;;;;;4.50;2.72;;;;;;;11.46;34.48;101359.75;5026601;28;20030;-22
2021/04/09 09:21:14;;;;;;;3.20;1.95;;;;;;;11.32;33.96;101371.34;5026866;28;20504;-21
2021/04/09 09:23:49;;;;;;;4.25;1.90;;;;;;;11.45;35.88;101363.44;5008938;28;20029;-22
2021/04/09 09:26:23;;;;;;;4.63;2.08;;;;;;;11.69;31.63;101368.53;5026608;28;20029;-21
2021/04/09 09:29:12;;;;;;;6.03;2.38;;;;;;;11.72;34.87;101344.13;5027247;28;20132;-22
2021/04/09 09:31:39;;;;;;;3.55;1.92;;;;;;;11.93;33.09;101352.13;5026788;28;20116;-21
2021/04/09 09:34:20;;;;;;;4.63;2.40;;;;;;;12.58;32.92;101366.00;5012899;28;20032;-21
2021/04/09 09:37:07;;;;;;;6.40;2.17;;;;;;;12.39;32.96;101367.56;5030553;28;20091;-22
2021/04/09 09:39:38;;;;;;;4.63;2.00;;;;;;;12.35;34.96;101368.19;5030350;28;20493;-26
2021/04/09 09:42:27;;;;;;;4.22;1.95;;;;;;;12.27;30.13;101358.47;5030479;28;20167;-21
2021/04/09 09:45:05;;;;;;;3.45;2.05;;;;;;;12.33;34.82;101351.50;5023869;28;20490;-21
2021/04/09 09:47:32;;;;;;;3.10;1.90;;;;;;;12.40;34.43;101353.19;5030866;28;20033;-22
2021/04/09 09:50:03;;;;;;;3.58;2.20;;;;;;;12.52;35.45;101360.63;5029556;28;20057;-21
2021/04/09 09:52:53;;;;;;;4.55;2.03;;;;;;;12.98;29.73;101346.56;5029827;28;20033;-21
2021/04/09 09:55:36;;;;;;;3.90;2.03;;;;;;;12.89;35.09;101355.81;5030194;28;20043;-22
2021/04/09 09:58:25;;;;;;;4.40;1.92;;;;;;;12.39;31.29;101351.53;5030057;28;20368;-22
2021/04/09 10:00:59;;;;;;;3.33;2.05;;;;;;;12.75;33.66;101345.06;5030274;28;20452;-21
2021/04/09 10:03:37;;;;;;;5.72;3.47;;;;;;;12.78;32.22;101350.00;5012106;28;20405;-22
2021/04/09 10:06:13;;;;;;;3.90;2.00;;;;;;;12.74;31.10;101342.59;5030087;28;20033;-22
2021/04/09 10:08:39;;;;;;;3.67;1.90;;;;;;;12.75;30.36;101347.75;5029740;28;20113;-21
2021/04/09 10:11:15;;;;;;;4.25;1.85;;;;;;;13.68;31.01;101343.53;5029948;28;20033;-23
2021/04/09 10:13:42;;;;;;;6.30;2.72;;;;;;;13.59;30.76;101334.88;5030047;28;20029;-22
2021/04/09 10:16:12;;;;;;;4.75;2.05;;;;;;;13.17;28.39;101340.41;5011997;28;20037;-22
2021/04/09 10:18:42;;;;;;;5.30;1.90;;;;;;;12.39;27.23;101340.00;5029927;28;20560;-22
2021/04/09 10:21:11;;;;;;;2.92;1.65;;;;;;;12.79;30.96;101338.28;5029881;28;20878;-22
2021/04/09 10:23:37;;;;;;;4.78;2.42;;;;;;;12.90;33.10;101320.81;5029550;28;20409;-21
2021/04/09 10:26:02;;;;;;;4.05;2.10;;;;;;;13.11;31.53;101338.53;5012057;28;20069;-21
2021/04/09 10:28:32;;;;;;;4.32;2.30;;;;;;;12.95;31.74;101341.59;5029796;28;20068;-22
2021/04/09 10:31:08;;;;;;;6.07;2.20;;;;;;;13.17;28.58;101337.72;5029566;28;20459;-22
2021/04/09 10:33:40;;;;;;;5.32;1.70;;;;;;;13.51;33.03;101338.59;5031283;28;20127;-22
2021/04/09 10:36:15;;;;;;;4.00;1.67;;;;;;;14.27;25.64;101310.34;5039215;28;20568;-19
2021/04/09 10:38:41;;;;;;;5.15;2.30;;;;;;;14.79;29.93;101338.03;5037600;28;20032;-23
2021/04/09 10:41:06;;;;;;;6.18;1.80;;;;;;;14.83;30.21;101341.91;5033736;28;20061;-20
2021/04/09 10:43:35;;;;;;;6.97;3.95;;;;;;;14.30;27.28;101320.66;5021823;28;20099;-22
2021/04/09 10:46:08;;;;;;;2.92;2.05;;;;;;;14.68;26.19;101325.25;5034531;28;20151;-21
2021/04/09 10:48:33;;;;;;;3.58;1.85;;;;;;;14.66;27.23;101332.72;5011530;28;20041;-21
2021/04/09 10:50:59;;;;;;;4.60;1.80;;;;;;;14.91;25.02;101335.44;5028680;28;20057;-21
2021/04/09 10:53:25;;;;;;;4.47;2.30;;;;;;;15.59;26.61;101340.09;5011185;28;20063;-22
2021/04/09 10:55:50;;;;;;;9.32;3.72;;;;;;;14.72;26.81;101331.84;5011396;28;20041;-22
2021/04/09 10:58:16;;;;;;;5.78;2.22;;;;;;;15.13;27.17;101337.78;5028938;28;20021;-23
2021/04/09 11:00:42;;;;;;;2.55;1.65;;;;;;;14.55;28.33;101333.38;5011747;28;20044;-22
2021/04/09 11:03:07;;;;;;;2.78;1.70;;;;;;;15.59;24.40;101321.28;5011787;28;20036;-22
2021/04/09 11:05:33;;;;;;;3.22;1.60;;;;;;;16.00;26.50;101317.16;5011133;28;20104;-21
2021/04/09 11:07:58;;;;;;;5.47;1.77;;;;;;;15.71;26.64;101334.00;5011080;28;20520;-22
2021/04/09 11:10:34;;;;;;;2.63;1.63;;;;;;;15.51;26.61;101324.25;5028959;28;20030;-21
2021/04/09 11:13:00;;;;;;;3.38;1.70;;;;;;;15.84;25.78;101325.84;5028968;28;20029;-21
2021/04/09 11:15:25;;;;;;;9.05;4.78;;;;;;;15.61;33.08;101332.63;5028749;28;20398;-21
2021/04/09 11:18:00;;;;;;;3.40;1.70;;;;;;;17.05;24.69;101325.97;5028819;28;20029;-20
2021/04/09 11:20:30;;;;;;;3.88;2.13;;;;;;;17.99;22.83;101320.59;5028426;28;20030;-21
2021/04/09 11:23:03;;;;;;;3.35;1.58;;;;;;;18.02;21.71;101324.69;5028737;28;20091;-21
2021/04/09 11:25:44;;;;;;;3.90;1.60;;;;;;;17.12;22.98;101321.31;5028725;28;20032;-21
2021/04/09 11:28:26;;;;;;;3.70;1.65;;;;;;;16.52;23.45;101310.53;5028395;28;20095;-22
2021/04/09 11:31:05;;;;;;;10.60;5.97;;;;;;;16.59;23.20;101312.09;5028258;28;20072;-22